Date,TemperatureHighF,TemperatureAvgF,TemperatureLowF,DewpointHighF,DewpointAvgF,DewpointLowF,HumidityHigh,HumidityAvg,HumidityLow,PressureMaxIn,PressureMinIn,WindSpeedMaxMPH,WindSpeedAvgMPH,GustSpeedMaxMPH,PrecipitationSumIn
2013-1-1,85,71,46,63,58,46,99,67,40,29.96,29.76,6,2,14,0.00
2013-1-2,78,69,57,69,65,57,99,88,71,29.82,29.70,6,1,13,0.01
2013-1-3,63,55,50,62,55,50,99,98,87,29.99,29.80,4,0,8,0.08
2013-1-4,59,52,47,54,50,47,99,94,83,30.07,29.97,3,0,5,0.00
2013-1-5,70,60,42,55,52,40,99,75,54,30.10,30.00,4,1,8,0.00
2013-1-6,64,57,53,58,56,53,99,96,78,30.01,29.86,2,0,4,0.46
2013-1-7,69,59,46,56,53,46,99,81,59,30.04,29.93,7,2,12,0.00
2013-1-8,73,65,58,67,62,56,99,90,79,30.03,29.94,4,1,10,0.00
2013-1-9,79,69,62,72,67,61,99,93,75,30.09,29.98,4,1,7,0.00
2013-1-10,81,73,62,72,68,61,99,85,67,30.10,30.01,3,1,8,0.01
2013-1-11,91,75,58,73,65,58,99,75,38,30.02,29.90,5,1,9,0.00
2013-1-12,96,74,59,72,65,59,99,77,33,29.96,29.84,4,0,7,0.00
2013-1-13,85,74,58,70,64,58,99,74,49,29.93,29.81,3,0,9,0.00
2013-1-14,90,74,59,70,65,58,99,74,39,29.94,29.84,5,1,11,0.00
2013-1-15,91,76,60,72,66,60,99,74,39,29.90,29.79,5,1,11,0.00
2013-1-16,89,79,64,70,65,61,99,65,40,29.83,29.72,6,2,14,0.00
2013-1-17,77,61,49,67,52,39,99,73,57,29.85,29.64,10,4,22,0.00
2013-1-18,63,56,43,47,44,35,86,64,50,30.15,29.90,8,3,20,0.00
2013-1-19,65,59,47,56,54,44,99,84,72,30.12,29.96,6,2,16,0.00
2013-1-20,81,67,53,56,51,49,99,59,33,29.97,29.81,4,1,7,0.00
2013-1-21,77,63,48,57,50,46,99,63,37,29.88,29.76,4,1,9,0.00
2013-1-22,71,57,44,44,31,24,72,40,18,30.03,29.84,4,1,9,0.00
2013-1-23,75,62,35,40,35,28,87,42,19,30.17,30.02,4,1,8,0.00
2013-1-24,81,69,42,54,50,40,96,53,33,30.05,29.92,7,2,14,0.00
2013-1-25,83,69,54,59,52,44,97,58,28,30.07,29.90,5,1,11,0.00
2013-1-26,83,73,54,64,60,49,99,66,48,29.98,29.88,7,2,11,0.00
2013-1-27,71,65,60,61,57,55,97,75,61,30.12,29.96,6,2,12,0.00
2013-1-28,86,74,54,66,64,54,99,73,48,30.12,30.00,3,1,8,0.00
2013-1-29,86,76,57,71,67,57,99,77,55,30.01,29.84,3,1,6,0.00
2013-1-30,92,81,67,68,65,63,99,60,40,29.85,29.52,7,3,19,0.00
2013-1-31,70,58,43,57,31,22,98,41,17,29.99,29.65,5,2,11,0.04
2013-2-1,68,58,40,37,33,30,80,41,24,30.07,29.98,4,2,11,0.00
2013-2-2,81,62,34,43,34,21,89,43,12,30.10,29.90,4,1,8,0.00
2013-2-3,78,53,38,44,35,16,99,60,10,29.93,29.78,4,1,8,0.00
2013-2-4,69,60,39,46,41,33,98,52,27,29.88,29.80,3,0,6,0.00
2013-2-5,80,65,44,52,47,42,99,54,33,29.85,29.73,4,0,8,0.00
2013-2-6,76,67,57,60,58,53,95,75,55,29.90,29.79,3,0,5,0.00
2013-2-7,82,73,60,68,64,59,99,75,52,29.85,29.56,6,1,15,0.01
2013-2-8,80,68,57,67,56,54,96,67,43,29.78,29.57,5,2,11,0.00
2013-2-9,72,63,48,53,46,40,99,57,33,30.01,29.83,6,1,14,0.00
2013-2-10,82,73,48,60,56,48,99,59,42,30.04,29.92,6,2,11,0.00
2013-2-11,87,77,63,66,63,60,92,63,44,29.94,29.79,6,1,12,0.00
2013-2-12,90,76,64,70,66,63,99,74,44,29.81,29.62,8,2,14,0.00
2013-2-13,78,71,62,76,64,51,99,80,54,29.65,29.54,6,2,13,0.31
2013-2-14,61,55,51,57,51,48,99,87,79,29.81,29.66,3,1,7,0.12
2013-2-15,75,62,41,51,48,41,99,63,39,29.85,29.73,4,1,7,0.01
2013-2-16,62,54,42,51,43,30,99,66,47,29.86,29.66,8,2,19,0.01
2013-2-17,63,52,33,24,9,-2,66,20,10,30.08,29.89,6,2,12,0.00
2013-2-18,70,50,26,43,36,24,96,64,31,30.16,30.00,4,1,8,0.00
2013-2-19,86,71,42,64,56,41,99,64,32,29.98,29.74,8,2,17,0.00
2013-2-20,78,63,47,58,36,25,98,44,15,29.93,29.80,4,1,8,0.00
2013-2-21,66,63,41,48,44,41,99,51,46,29.90,29.82,2,1,4,0.00
2013-2-22,91,80,60,70,67,58,99,68,41,29.82,29.73,5,1,12,0.00
2013-2-23,90,82,67,70,66,64,99,60,44,29.72,29.58,8,2,15,0.00
2013-2-24,84,74,62,68,55,26,99,60,15,29.73,29.59,3,1,7,0.18
2013-2-25,65,63,59,64,63,59,99,99,98,29.68,29.58,5,2,12,1.38
2013-2-26,86,73,66,70,60,52,99,69,31,29.52,29.40,9,3,18,0.57
2013-2-27,79,67,54,56,46,38,85,49,27,29.72,29.57,6,2,13,0.00
2013-2-28,76,72,50,48,44,43,86,38,31,29.73,29.61,8,5,14,0.00
2013-3-1,64,55,48,39,37,35,62,52,36,29.75,29.64,4,2,9,0.00
2013-3-2,63,55,38,38,32,26,93,44,25,29.76,29.67,8,4,17,0.00
2013-3-3,50,46,37,33,28,28,81,50,43,29.88,29.73,7,5,14,0.00
2013-3-4,77,58,31,42,28,17,91,38,12,29.97,29.84,5,1,8,0.00
2013-3-5,83,72,40,56,45,32,94,42,16,29.92,29.65,8,3,16,0.00
2013-3-6,66,52,45,62,33,28,93,50,24,29.87,29.60,10,3,17,0.00
2013-3-7,78,56,38,44,38,29,95,58,17,29.99,29.87,4,1,8,0.00
2013-3-8,70,56,37,52,46,37,99,73,32,29.98,29.89,4,1,9,0.00
2013-3-9,73,62,40,54,49,40,99,64,38,30.02,29.92,4,1,11,0.00
2013-3-10,81,72,48,61,55,47,99,56,39,29.97,29.86,5,1,11,0.00
2013-3-11,81,75,51,63,59,51,99,59,46,29.88,29.64,4,1,12,0.00
2013-3-12,74,66,56,70,58,48,99,77,49,29.76,29.58,4,1,9,0.09
2013-3-13,80,70,51,48,30,18,81,25,10,29.93,29.76,6,2,14,0.00
2013-3-14,71,60,44,38,29,23,71,33,18,30.05,29.85,4,1,10,0.00
2013-3-15,86,64,36,46,36,22,99,44,14,30.03,29.85,3,0,7,0.00
2013-3-16,90,77,51,54,47,38,91,37,18,29.90,29.72,6,2,14,0.00
2013-3-17,86,71,47,57,47,37,96,50,19,29.85,29.71,4,1,11,0.00
2013-3-18,88,78,61,65,62,56,96,60,39,29.79,29.59,5,1,11,0.00
2013-3-19,92,77,62,66,60,57,93,58,32,29.74,29.62,4,1,10,0.00
2013-3-20,73,65,53,60,54,50,99,69,52,29.76,29.61,5,2,10,0.06
2013-3-21,77,64,43,48,26,10,99,30,10,29.70,29.59,6,2,11,0.01
2013-3-22,73,65,45,48,39,33,80,40,26,29.81,29.68,4,1,8,0.00
2013-3-23,72,61,52,68,60,49,99,96,84,29.74,29.54,2,0,7,1.76
2013-3-24,92,78,62,76,70,62,99,80,43,29.54,29.25,8,3,17,0.27
2013-3-25,74,65,52,63,30,15,90,29,11,29.71,29.36,8,3,17,0.00
2013-3-26,65,58,41,31,26,23,58,30,21,29.95,29.78,6,3,16,0.00
2013-3-27,72,59,38,35,29,25,72,35,18,30.05,29.95,5,1,12,0.00
2013-3-28,76,62,37,43,37,14,98,45,10,30.04,29.94,4,1,9,0.00
2013-3-29,82,68,39,53,35,22,99,39,12,30.08,29.94,4,1,7,0.00
2013-3-30,88,74,43,57,44,35,99,42,16,30.01,29.83,5,1,12,0.00
2013-3-31,91,76,52,58,53,46,88,48,28,29.87,29.70,7,2,13,0.00
2013-4-1,87,78,63,69,65,59,96,66,47,29.73,29.62,7,1,12,0.00
2013-4-2,83,74,53,62,48,40,99,44,22,29.86,29.71,4,1,11,0.00
2013-4-3,88,74,52,68,63,52,99,74,38,29.84,29.76,4,1,9,0.24
2013-4-4,82,75,65,74,69,64,99,84,69,29.80,29.63,6,1,11,0.13
2013-4-5,68,60,54,67,59,54,99,97,93,29.77,29.55,2,0,4,0.26
2013-4-6,75,62,49,62,55,49,99,80,47,29.92,29.77,3,1,8,0.00
2013-4-7,86,75,56,70,60,56,99,60,44,29.94,29.83,4,1,9,0.00
2013-4-8,88,75,54,73,62,54,99,68,42,29.91,29.83,4,0,8,0.00
2013-4-9,90,82,58,77,65,58,99,59,43,29.94,29.83,4,1,8,0.00
2013-4-10,90,81,57,75,67,56,99,64,47,29.89,29.75,4,1,8,0.00
2013-4-11,94,81,68,75,72,68,99,75,49,29.74,29.54,4,1,9,0.00
2013-4-12,93,84,72,77,72,67,99,67,47,29.61,29.49,8,3,19,0.01
2013-4-13,88,78,61,70,52,44,92,44,24,29.75,29.61,4,1,7,0.00
2013-4-14,79,65,58,68,65,57,99,98,60,29.75,29.61,3,0,8,1.20
2013-4-15,92,77,61,72,66,61,99,71,42,29.84,29.55,4,1,12,0.00
2013-4-16,89,81,65,72,69,65,99,68,51,29.92,29.83,4,1,8,0.00
2013-4-17,83,76,62,73,69,62,99,77,65,29.92,29.84,3,1,7,0.00
2013-4-18,93,80,64,76,68,63,99,70,43,29.84,29.70,4,0,8,0.00
2013-4-19,93,84,72,76,73,68,99,71,47,29.74,29.60,6,2,14,0.01
2013-4-20,68,58,51,66,55,51,99,89,77,29.91,29.73,4,1,8,0.71
2013-4-21,73,68,56,65,63,53,99,86,63,29.95,29.85,7,2,14,0.02
2013-4-22,66,63,61,66,59,57,99,89,76,29.90,29.79,6,2,14,0.20
2013-4-23,77,70,58,62,58,56,99,68,51,29.92,29.81,5,1,11,0.00
2013-4-24,91,78,52,70,63,52,99,62,33,29.91,29.82,4,0,8,0.00
2013-4-25,94,82,60,70,66,59,99,62,36,29.94,29.85,5,1,10,0.01
2013-4-26,84,75,62,69,65,59,96,71,53,30.04,29.90,4,1,11,0.00
2013-4-27,88,77,60,67,62,56,99,61,39,30.00,29.89,4,1,8,0.00
2013-4-28,90,81,64,71,66,63,99,62,44,29.91,29.74,4,1,8,0.00
2013-4-29,87,76,66,73,68,65,99,80,51,29.77,29.65,4,1,12,0.61
2013-4-30,93,79,64,74,68,63,99,73,43,29.75,29.68,3,1,7,0.01
2013-5-1,80,73,64,72,68,64,99,85,72,29.81,29.72,5,2,14,0.00
2013-5-2,70,69,67,70,69,67,99,99,93,29.77,29.65,4,1,11,1.81
2013-5-3,70,69,66,70,67,64,99,96,84,29.65,29.58,5,2,14,1.09
2013-5-4,70,69,65,70,68,64,99,99,83,29.58,29.44,8,2,15,0.73
2013-5-5,82,73,61,70,55,49,99,58,34,29.62,29.45,5,2,12,0.00
2013-5-6,81,71,56,60,50,45,90,47,30,29.73,29.59,5,2,11,0.00
2013-5-7,81,75,55,63,58,53,97,57,44,29.73,29.64,8,2,17,0.00
2013-5-8,90,80,57,67,59,55,99,51,32,29.83,29.73,5,1,11,0.40
2013-5-9,92,81,62,70,63,60,99,56,36,29.87,29.80,3,0,7,0.00
2013-5-10,96,77,61,72,65,60,99,71,30,29.86,29.72,3,0,6,0.00
2013-5-11,89,78,68,74,70,68,99,80,58,29.78,29.66,5,1,16,0.14
2013-5-12,90,84,67,72,67,64,99,57,48,29.73,29.65,6,2,12,0.01
2013-5-13,86,76,62,60,44,33,75,34,16,29.88,29.73,5,2,18,0.00
2013-5-14,90,75,51,54,45,27,89,39,11,29.98,29.88,4,0,7,0.00
2013-5-15,94,82,54,66,57,51,99,47,23,29.96,29.81,4,0,6,0.00
2013-5-16,93,81,63,70,67,61,97,63,38,29.86,29.75,4,0,8,0.00
2013-5-17,94,83,63,70,67,57,99,61,33,29.85,29.78,4,0,8,0.00
2013-5-18,94,83,67,75,71,66,99,69,50,29.87,29.75,3,0,7,0.07
2013-5-19,93,82,69,80,75,67,99,79,56,29.83,29.73,4,0,11,0.40
2013-5-20,88,81,70,78,75,69,99,82,64,29.83,29.74,3,0,6,0.08
2013-5-21,86,77,69,79,74,69,99,92,67,29.80,29.67,2,0,9,0.57
2013-5-22,85,79,66,81,75,66,99,87,70,29.74,29.65,2,0,5,0.56
2013-5-23,96,86,69,78,73,68,99,66,40,29.71,29.62,4,1,8,0.02
2013-5-24,94,87,71,73,61,52,99,44,28,29.82,29.67,6,2,13,0.00
2013-5-25,87,72,65,66,57,54,96,62,33,29.99,29.84,4,0,10,0.00
2013-5-26,90,81,58,68,54,48,99,41,25,29.97,29.89,3,1,8,0.02
2013-5-27,90,80,60,70,66,60,99,64,44,29.95,29.87,2,0,7,0.00
2013-5-28,90,82,64,72,70,64,99,68,53,29.92,29.86,3,1,9,0.00
2013-5-29,91,83,68,78,75,68,99,76,59,29.91,29.83,3,1,10,0.00
2013-5-30,91,85,72,77,74,72,99,71,57,29.91,29.83,3,1,8,0.02
2013-5-31,89,82,70,77,73,70,99,74,59,29.89,29.82,4,1,10,0.01
2013-6-1,89,83,70,76,74,70,99,75,58,29.84,29.75,3,1,8,0.00
2013-6-2,92,85,73,79,77,72,99,77,62,29.80,29.62,2,0,6,0.00
2013-6-3,100,84,74,80,76,74,99,79,44,29.68,29.58,4,0,8,0.05
2013-6-4,95,83,73,81,77,73,99,85,54,29.75,29.66,5,1,8,0.59
2013-6-5,87,79,73,77,75,73,99,87,66,29.75,29.67,4,0,10,0.11
2013-6-6,79,75,72,79,75,72,99,99,99,29.68,29.29,3,0,9,1.06
2013-6-7,92,84,72,79,76,72,99,77,57,29.63,29.30,5,1,12,0.09
2013-6-8,96,87,75,78,75,72,99,69,47,29.79,29.65,3,0,8,0.00
2013-6-9,94,83,73,83,78,73,99,85,61,29.86,29.77,3,0,7,0.40
2013-6-10,93,85,74,81,78,74,99,79,57,29.84,29.73,4,0,8,0.00
2013-6-11,98,89,74,80,76,73,99,66,49,29.82,29.72,4,1,8,0.00
2013-6-12,89,84,75,80,78,74,99,85,73,29.79,29.75,4,1,5,0.00
2013-6-13,102,89,79,83,79,73,96,74,45,29.72,29.57,5,1,11,0.05
2013-6-14,96,85,73,84,78,73,99,82,56,29.67,29.52,4,1,10,0.06
2013-6-15,92,84,73,75,71,69,99,66,49,29.83,29.67,3,0,6,0.00
2013-6-16,93,85,70,76,74,70,99,69,54,29.86,29.77,3,0,7,0.00
2013-6-17,97,88,77,81,78,74,99,72,51,29.82,29.68,3,0,6,0.00
2013-6-18,99,90,75,78,74,71,99,61,43,29.77,29.63,7,2,16,0.00
2013-6-19,98,89,77,79,76,70,99,66,44,29.75,29.64,4,1,11,0.00
2013-6-20,94,84,74,80,76,71,99,80,58,29.83,29.71,5,1,13,0.11
2013-6-21,92,83,74,78,76,73,99,81,58,29.86,29.78,4,1,9,0.01
2013-6-22,91,81,74,80,76,74,99,87,62,29.87,29.80,6,0,9,0.13
2013-6-23,95,87,72,81,76,72,99,72,54,29.89,29.82,4,0,7,0.00
2013-6-24,97,88,74,81,76,72,99,68,47,29.93,29.83,2,0,7,0.00
2013-6-25,94,85,74,81,77,73,99,78,54,29.90,29.78,3,0,7,0.01
2013-6-26,100,83,71,82,77,71,99,86,44,29.83,29.72,6,0,22,0.74
2013-6-27,98,88,72,81,78,72,99,71,51,29.75,29.60,4,1,14,0.00
2013-6-28,95,85,78,80,76,73,98,76,56,29.66,29.50,6,1,14,0.00
2013-6-29,88,84,79,80,77,74,98,79,68,29.55,29.47,6,1,14,0.01
2013-6-30,97,81,75,80,78,74,99,92,52,29.58,29.51,7,0,14,0.43
2013-7-1,87,77,73,79,75,73,99,94,75,29.75,29.56,5,0,14,0.56
2013-7-2,91,79,73,81,76,72,99,91,66,29.84,29.72,4,0,8,0.11
2013-7-3,88,82,72,82,79,72,99,90,80,29.87,29.81,4,0,8,0.06
2013-7-4,93,85,74,80,77,74,99,79,61,29.91,29.83,4,1,11,0.01
2013-7-5,92,85,73,81,77,73,99,77,66,29.91,29.83,3,1,8,0.00
2013-7-6,95,87,74,81,77,74,99,73,57,29.89,29.80,2,1,8,0.00
2013-7-7,93,87,73,81,76,73,99,70,58,29.89,29.81,2,0,6,0.00
2013-7-8,97,91,73,81,76,73,99,64,50,29.91,29.83,2,1,6,0.00
2013-7-9,97,88,74,80,74,72,99,65,46,29.91,29.80,2,0,5,0.00
2013-7-10,96,88,72,82,75,71,99,68,52,29.84,29.69,3,0,7,0.00
2013-7-11,100,88,75,79,76,72,99,70,43,29.75,29.59,4,0,11,0.02
2013-7-12,95,82,74,81,77,74,99,84,55,29.67,29.61,3,0,12,0.02
2013-7-13,96,80,72,84,76,71,99,88,53,29.73,29.63,4,0,6,0.17
2013-7-14,92,84,71,81,76,71,99,78,61,29.85,29.72,3,0,6,0.00
2013-7-15,90,83,72,83,78,72,99,87,69,29.89,29.83,4,1,13,0.18
2013-7-16,91,87,75,80,78,75,99,75,65,29.94,29.88,3,1,8,0.00
2013-7-17,94,87,75,82,76,74,99,71,51,29.94,29.83,3,1,8,0.00
2013-7-18,96,87,73,82,76,72,99,72,50,29.87,29.78,2,0,8,0.00
2013-7-19,96,82,74,79,76,74,99,82,51,29.85,29.76,5,0,12,0.01
2013-7-20,92,78,73,80,76,73,99,92,64,29.83,29.75,4,0,14,0.26
2013-7-21,98,84,73,80,76,73,99,78,49,29.83,29.74,4,1,11,0.01
2013-7-22,94,81,76,81,78,75,99,92,58,29.85,29.75,4,1,11,0.25
2013-7-23,93,83,76,81,78,75,99,87,64,29.76,29.63,5,1,12,0.01
2013-7-24,90,86,74,80,78,73,99,77,70,29.65,29.54,6,2,12,0.10
2013-7-25,96,88,74,80,77,74,99,72,53,29.66,29.56,5,1,9,0.00
2013-7-26,98,88,75,83,78,75,99,74,51,29.74,29.67,2,0,7,0.00
2013-7-27,98,82,72,84,77,72,99,88,49,29.74,29.60,4,0,8,1.20
2013-7-28,97,82,74,82,77,73,99,87,56,29.77,29.65,3,0,8,1.41
2013-7-29,99,88,71,86,78,71,99,75,44,29.88,29.75,2,0,9,0.00
2013-7-30,101,86,76,82,80,76,99,84,48,29.90,29.82,2,0,4,0.44
2013-7-31,98,82,74,84,77,74,99,88,55,29.86,29.77,5,0,11,0.51
2013-8-1,99,82,72,82,77,72,99,85,50,29.77,29.65,4,0,12,1.98
2013-8-2,96,87,72,87,78,72,99,75,54,29.76,29.67,3,0,6,0.01
2013-8-3,97,87,75,83,80,75,99,80,56,29.78,29.70,3,0,8,0.07
2013-8-4,101,92,78,83,79,74,99,68,44,29.78,29.65,4,1,9,0.00
2013-8-5,102,92,79,82,80,76,99,70,46,29.72,29.62,3,1,7,0.00
2013-8-6,97,88,78,84,80,78,99,80,58,29.72,29.63,2,0,6,0.00
2013-8-7,94,88,78,82,80,78,99,79,62,29.74,29.67,4,1,7,0.00
2013-8-8,96,89,77,86,80,76,99,75,54,29.77,29.69,4,0,9,0.11
2013-8-9,95,88,76,83,79,75,99,76,62,29.82,29.71,2,0,5,0.00
2013-8-10,99,85,75,84,80,75,99,87,51,29.87,29.79,2,0,4,0.12
2013-8-11,101,92,76,83,80,75,99,69,44,29.89,29.79,2,0,5,0.00
2013-8-12,102,90,77,83,80,77,99,73,50,29.85,29.71,3,0,8,0.02
2013-8-13,103,92,76,84,78,71,99,64,46,29.76,29.61,4,1,8,0.00
2013-8-14,104,80,72,82,76,72,99,90,41,29.73,29.58,4,1,10,1.05
2013-8-15,101,90,74,88,80,74,99,74,46,29.77,29.63,11,1,19,0.43
2013-8-16,94,84,73,82,79,73,99,84,58,29.77,29.67,4,0,11,0.01
2013-8-17,93,85,76,86,80,76,99,87,68,29.83,29.73,2,0,4,0.11
2013-8-18,97,86,76,86,80,75,99,85,60,29.86,29.77,3,0,6,0.01
2013-8-19,99,89,77,86,81,76,99,78,56,29.84,29.70,2,0,6,0.08
2013-8-20,99,92,75,85,80,75,99,70,53,29.83,29.75,2,1,7,0.02
2013-8-21,97,84,77,86,81,76,99,91,59,29.90,29.81,2,0,6,0.20
2013-8-22,80,77,73,80,76,73,99,99,99,29.90,29.75,4,0,12,0.28
2013-8-23,90,83,75,86,81,75,99,96,80,29.78,29.73,2,0,6,0.09
2013-8-24,88,82,75,83,80,74,99,91,81,29.87,29.75,3,0,7,0.01
2013-8-25,90,80,74,82,77,74,99,90,70,29.93,29.85,4,1,14,0.01
2013-8-26,92,84,75,81,78,74,99,83,64,29.92,29.80,4,1,11,0.02
2013-8-27,95,86,74,82,72,69,99,65,47,29.83,29.74,2,0,6,0.00
2013-8-28,100,90,71,80,75,70,99,62,40,29.80,29.70,3,0,4,0.00
2013-8-29,100,92,74,80,73,69,99,56,39,29.75,29.63,4,1,10,0.00
2013-8-30,101,88,76,82,78,72,99,73,43,29.70,29.59,3,0,6,0.00
2013-8-31,103,84,72,84,76,72,99,81,40,29.69,29.59,5,0,11,0.61
2013-9-1,102,90,74,86,78,73,99,71,45,29.70,29.59,4,1,8,0.72
2013-9-2,99,84,74,86,81,74,99,92,52,29.72,29.60,3,0,8,0.30
2013-9-3,98,84,75,84,79,75,99,86,59,29.72,29.63,3,0,5,0.01
2013-9-4,104,91,76,86,78,72,99,69,36,29.81,29.70,3,0,6,0.00
2013-9-5,103,91,76,83,80,76,99,74,44,29.83,29.73,3,0,6,0.00
2013-9-6,98,83,75,83,79,74,99,89,56,29.79,29.70,3,0,7,0.00
2013-9-7,95,88,73,81,75,72,99,67,53,29.77,29.68,3,1,11,0.00
2013-9-8,97,90,71,80,72,68,99,58,42,29.72,29.64,3,1,9,0.00
2013-9-9,96,87,71,80,74,71,99,69,45,29.79,29.69,3,0,8,0.00
2013-9-10,94,88,73,80,74,71,99,65,49,29.87,29.77,4,1,10,0.00
2013-9-11,90,82,73,82,77,73,99,87,71,29.85,29.81,2,0,6,0.00
2013-9-12,88,81,73,83,79,73,99,93,79,29.78,29.73,2,0,4,0.00
2013-9-13,104,90,72,82,76,70,99,66,36,29.65,29.50,3,0,7,0.00
2013-9-14,100,88,74,83,78,73,99,76,43,29.69,29.55,4,0,9,0.07
2013-9-15,100,92,74,86,78,73,99,66,50,29.80,29.71,0,0,2,0.01
2013-9-16,100,90,75,83,79,74,99,71,47,29.82,29.73,2,0,5,0.00
2013-9-17,91,83,74,85,80,74,99,91,66,29.84,29.74,4,1,12,0.38
2013-9-18,84,78,74,81,76,73,99,93,76,29.84,29.76,5,1,14,2.65
2013-9-19,90,81,73,83,76,72,99,86,60,29.83,29.76,2,0,6,0.12
2013-9-20,93,83,70,81,75,70,99,77,55,29.79,29.67,4,0,9,0.00
2013-9-21,100,86,68,83,75,68,99,71,41,29.68,29.48,2,0,8,0.00
2013-9-22,86,80,74,82,77,73,99,91,79,29.58,29.47,4,1,9,0.12
2013-9-23,86,81,73,82,80,73,99,94,83,29.70,29.57,2,0,4,0.01
2013-9-24,89,80,74,81,78,74,99,96,74,29.69,29.56,4,0,8,0.27
2013-9-25,91,83,75,83,80,75,99,91,71,29.56,29.47,5,1,10,0.00
2013-9-26,80,75,72,79,74,72,99,99,92,29.64,29.46,2,1,5,0.01
2013-9-27,85,78,68,77,74,68,99,87,72,29.73,29.61,4,1,11,0.00
2013-9-28,82,77,72,75,73,71,99,87,73,29.81,29.70,4,1,13,0.04
2013-9-29,88,80,69,77,73,69,99,79,62,29.76,29.69,6,1,13,0.08
2013-9-30,87,80,68,75,69,66,99,70,53,29.76,29.67,4,1,10,0.00
2013-10-1,86,77,68,74,69,67,99,77,56,29.84,29.75,4,1,8,0.00
2013-10-2,90,82,64,74,71,64,99,70,53,29.84,29.78,4,1,8,0.00
2013-10-3,91,81,67,79,77,67,99,88,66,29.84,29.75,3,0,8,0.00
2013-10-4,94,85,71,82,78,70,99,81,56,29.84,29.75,4,1,9,0.00
2013-10-5,93,84,70,81,78,70,99,83,61,29.81,29.73,4,1,9,0.00
2013-10-6,98,85,73,84,80,73,99,86,56,29.74,29.60,2,0,5,0.12
2013-10-7,94,81,73,83,77,73,99,91,58,29.60,29.48,3,0,7,0.72
2013-10-8,77,72,68,76,72,68,99,99,99,29.74,29.52,4,1,8,0.40
2013-10-9,67,63,62,66,63,62,99,99,99,29.82,29.73,3,1,9,0.01
2013-10-10,95,79,61,73,67,61,99,71,36,29.82,29.70,3,0,7,0.00
2013-10-11,92,76,62,72,67,61,99,76,40,29.79,29.67,5,1,9,0.00
2013-10-12,95,82,62,72,66,61,99,63,34,29.78,29.69,3,1,5,0.00
2013-10-13,89,78,62,75,71,62,99,79,50,29.83,29.75,4,1,9,0.00
2013-10-14,81,76,66,76,73,66,99,89,77,29.81,29.73,4,1,9,0.00
2013-10-15,72,71,68,72,71,68,99,99,99,29.75,29.68,3,1,8,0.24
2013-10-16,89,78,66,78,74,66,99,88,65,29.73,29.66,3,1,8,0.00
2013-10-17,99,82,66,77,74,66,99,80,46,29.72,29.62,3,0,5,0.00
2013-10-18,102,85,69,79,76,69,99,78,40,29.73,29.62,4,0,8,0.00
2013-10-19,98,82,72,81,78,72,99,88,53,29.68,29.58,4,0,8,0.00
2013-10-20,86,77,68,74,69,66,99,76,56,29.74,29.62,4,1,8,0.00
2013-10-21,86,79,69,81,77,69,99,94,80,29.77,29.68,4,1,10,0.00
2013-10-22,82,78,72,81,77,72,99,98,92,29.71,29.54,2,0,6,0.31
2013-10-23,85,69,60,70,61,52,99,78,35,29.78,29.55,4,1,8,0.12
2013-10-24,79,65,54,58,54,46,99,71,39,29.93,29.78,3,0,7,0.00
2013-10-25,84,71,52,59,55,50,99,60,36,30.00,29.91,4,1,9,0.00
2013-10-26,80,68,50,62,59,50,99,74,48,29.99,29.87,4,1,7,0.00
2013-10-27,54,51,49,54,51,49,99,99,99,29.90,29.85,0,0,0,0.00
2013-10-28,87,75,53,66,63,52,99,69,47,29.98,29.86,4,1,6,0.00
2013-10-29,84,73,57,74,68,57,99,84,59,30.03,29.94,4,1,10,0.00
2013-10-30,85,75,59,75,69,59,99,83,61,30.01,29.91,3,1,50,0.00
2013-10-31,93,80,65,78,73,65,99,79,52,29.91,29.72,2,0,8,0.01
2013-11-1,86,81,70,77,75,69,99,81,68,29.74,29.55,6,2,14,0.00
2013-11-2,77,66,58,77,65,57,99,96,79,29.70,29.51,2,0,6,1.50
2013-11-3,77,66,53,62,54,49,99,68,41,29.95,29.70,6,1,100,0.00
2013-11-4,75,66,56,67,62,54,99,89,70,30.01,29.93,5,2,11,0.06
2013-11-5,71,67,65,71,67,65,99,99,99,30.01,29.93,6,2,14,0.17
2013-11-6,84,74,66,77,73,66,99,97,77,29.93,29.83,3,1,9,0.02
2013-11-7,91,77,68,74,71,68,99,82,51,29.82,29.71,2,0,6,0.00
2013-11-8,71,65,52,66,56,49,90,73,60,29.94,29.78,7,2,15,0.00
2013-11-9,81,69,56,67,65,56,99,88,61,29.99,29.91,4,1,8,0.00
2013-11-10,82,69,58,70,64,58,99,84,56,29.97,29.87,4,0,8,0.00
2013-11-11,84,71,56,69,65,55,99,83,54,29.96,29.86,3,1,7,0.00
2013-11-12,78,68,61,68,63,52,99,85,53,29.90,29.77,4,0,7,0.00
2013-11-13,60,49,47,51,45,44,90,86,67,30.15,29.91,5,2,11,0.00
2013-11-14,68,62,43,62,59,42,99,90,80,30.13,30.00,6,2,13,0.00
2013-11-15,69,66,55,69,66,55,99,99,99,29.98,29.81,2,0,4,0.05
2013-11-16,78,72,60,74,70,60,99,94,72,29.93,29.83,3,0,8,0.01
2013-11-17,86,79,68,82,77,68,99,95,81,29.85,29.74,2,0,8,0.21
2013-11-18,83,76,69,81,75,68,99,98,89,29.77,29.63,4,0,11,0.20
2013-11-19,72,65,56,71,62,51,99,89,74,29.79,29.65,5,2,14,0.01
2013-11-20,72,66,62,71,65,62,99,99,93,29.94,29.77,6,2,15,0.02
2013-11-21,77,69,64,75,69,64,99,98,89,30.01,29.91,4,1,10,0.01
2013-11-22,88,73,64,78,69,63,99,90,58,30.00,29.90,3,0,7,0.01
2013-11-23,92,72,59,75,69,59,99,90,46,29.88,29.75,3,0,8,0.02
2013-11-24,65,56,53,65,47,44,99,71,55,30.10,29.82,8,3,17,0.01
2013-11-25,70,66,55,65,62,49,99,88,78,30.08,29.92,4,1,11,0.00
2013-11-26,80,75,66,80,74,64,99,99,91,29.86,29.47,5,1,12,0.61
2013-11-27,72,54,43,72,51,40,99,90,72,29.92,29.36,7,3,15,0.07
2013-11-28,58,48,33,49,45,32,99,88,67,30.17,29.98,5,1,11,0.00
2013-11-29,68,54,43,58,50,42,99,89,58,30.19,30.12,4,1,8,0.00
2013-11-30,62,58,55,62,58,55,99,99,96,30.14,30.01,8,2,14,0.00
2013-12-1,75,65,55,67,62,54,99,90,73,29.98,29.78,3,0,6,0.00
2013-12-2,75,65,55,64,60,55,99,85,61,29.74,29.57,3,0,8,0.00
2013-12-3,89,70,48,67,63,48,99,82,43,29.72,29.62,4,0,8,0.00
2013-12-4,90,72,57,74,68,57,99,89,52,29.84,29.70,3,0,5,0.00
2013-12-5,93,76,58,77,70,58,99,84,49,29.91,29.81,4,0,8,0.00
2013-12-6,91,74,64,77,71,64,99,91,56,29.91,29.83,5,0,13,0.00
2013-12-7,92,77,66,79,73,66,99,89,54,29.97,29.87,6,0,11,0.00
2013-12-8,72,67,64,72,66,64,99,99,99,30.00,29.89,3,1,8,0.00
2013-12-9,87,76,62,78,72,62,99,87,62,29.93,29.81,6,0,13,0.00
2013-12-10,82,70,58,77,69,58,99,97,77,29.97,29.77,4,1,11,0.26
2013-12-11,68,62,49,66,61,49,99,98,87,30.05,29.97,5,1,11,0.00
2013-12-12,76,57,45,57,40,18,99,61,12,30.12,29.99,4,0,8,0.00
2013-12-13,69,58,43,61,56,43,99,92,71,30.09,29.91,4,0,11,0.00
2013-12-14,80,73,53,76,71,53,99,94,82,29.88,29.62,8,1,17,0.28
2013-12-15,69,58,49,68,57,49,99,98,87,29.91,29.59,4,1,11,0.22
2013-12-16,69,50,39,49,44,39,99,84,43,30.01,29.91,3,0,7,0.00
2013-12-17,81,54,37,50,44,36,99,75,20,30.03,29.91,3,0,6,0.00
2013-12-18,78,55,40,48,36,19,99,58,12,30.05,29.94,4,1,8,0.00
2013-12-19,84,62,38,64,56,37,99,82,44,30.05,29.94,2,0,6,0.00
2013-12-20,84,70,48,69,63,47,99,82,52,29.96,29.87,2,0,8,0.00
2013-12-21,95,80,60,77,72,59,99,78,49,29.89,29.76,4,1,11,0.00
2013-12-22,93,79,70,79,74,70,99,87,55,29.87,29.80,7,1,17,0.00
2013-12-23,91,79,70,78,75,70,99,88,59,29.89,29.78,7,2,14,0.00
2013-12-24,70,60,49,62,42,38,99,54,31,30.05,29.86,4,1,11,0.01
2013-12-25,62,56,41,58,55,37,99,98,71,30.05,29.99,6,2,10,0.00
2013-12-26,59,55,51,56,53,50,99,92,82,30.03,29.92,3,1,7,0.00
2013-12-27,62,58,53,60,57,52,99,96,86,30.07,29.97,4,1,12,0.00
2013-12-28,70,67,58,70,62,9,99,92,10,30.03,29.73,4,1,9,0.06
2013-12-29,73,67,59,73,66,38,99,97,45,29.75,29.62,98,4,10,0.72
2013-12-30,74,60,49,58,53,49,99,81,49,29.95,29.75,4,0,8,0.01
2013-12-31,65,61,55,56,54,51,99,78,64,30.08,29.94,3,0,7,0.00
2014-1-1,62,60,53,61,59,53,99,99,99,30.06,29.83,2,0,6,0.53
2014-1-2,65,62,57,64,62,57,99,99,99,29.82,29.50,6,1,16,0.90